KISQ/ISQ METAR and TAF weather

Enter ICAO airport designator
Station Type Date Time Source
KISQ METAR 2019/04/18 22:16 UTC NOAA

KISQ 182216Z AUTO 35011G16KT 10SM OVC016 05/01 A2964 RMK AO2 T00450012


Station Type Date Time Source
KISQ Decoded METAR 2019/04/18 22:16 UTC NOAA

Manistique, Schoolcraft County Airport, MI, United States (KISQ) 45-58-29N 086-10-19W
Apr 18, 2019 - 06:16 PM EDT / 2019.04.18 2216 UTC
Wind: from the N (350 degrees) at 13 MPH (11 KT) gusting to 18 MPH (16 KT):0
Visibility: 10 mile(s):0
Sky conditions: overcast
Temperature: 40.1 F (4.5 C)
Dew Point: 34.2 F (1.2 C)
Relative Humidity: 79%
Pressure (altimeter): 29.64 in. Hg (1003 hPa)
ob: KISQ 182216Z AUTO 35011G16KT 10SM OVC016 05/01 A2964 RMK AO2 T00450012
cycle: 22

Station Type Date Time Source
KISQ TAF UTC NOAA

Error!

Example: see airport list